createdAt,value
2018-11-12T00:00:32.043Z,3.73
2018-11-12T00:02:59.857Z,3.90
2018-11-12T00:05:27.486Z,3.93
2018-11-12T00:07:55.037Z,3.83
2018-11-12T00:10:22.745Z,3.80
2018-11-12T00:12:50.425Z,4.10
2018-11-12T00:15:17.925Z,3.87
2018-11-12T00:17:45.655Z,4.57
2018-11-12T00:20:14.264Z,4.43
2018-11-12T00:22:42.140Z,3.83
2018-11-12T00:25:09.910Z,3.47
2018-11-12T00:27:37.703Z,3.93
2018-11-12T00:30:07.908Z,4.70
2018-11-12T00:32:35.970Z,3.80
2018-11-12T00:35:03.607Z,3.97
2018-11-12T00:37:31.157Z,3.30
2018-11-12T00:39:58.805Z,3.93
2018-11-12T00:42:26.698Z,4.00
2018-11-12T00:44:54.153Z,3.17
2018-11-12T00:47:21.939Z,4.17
2018-11-12T00:49:49.620Z,3.63
2018-11-12T00:52:17.056Z,3.77
2018-11-12T00:54:44.740Z,3.60
2018-11-12T00:57:12.378Z,3.30
2018-11-12T00:59:39.824Z,3.03
2018-11-12T01:02:07.589Z,3.13
2018-11-12T01:04:35.154Z,3.17
2018-11-12T01:07:02.680Z,3.30
2018-11-12T01:09:30.386Z,3.43
2018-11-12T01:11:58.037Z,3.23
2018-11-12T01:14:25.500Z,3.03
2018-11-12T01:16:53.128Z,3.60
2018-11-12T01:19:20.580Z,3.33
2018-11-12T01:21:48.025Z,2.60
2018-11-12T01:24:15.969Z,3.13
2018-11-12T01:26:44.067Z,3.00
2018-11-12T01:29:11.630Z,2.87
2018-11-12T01:31:39.283Z,3.17
2018-11-12T01:34:06.853Z,2.90
2018-11-12T01:36:34.334Z,3.13
2018-11-12T01:39:02.272Z,3.23
2018-11-12T01:41:30.052Z,3.50
2018-11-12T01:43:57.485Z,2.77
2018-11-12T01:46:25.294Z,3.50
2018-11-12T01:48:53.334Z,3.60
2018-11-12T01:51:20.854Z,2.77
2018-11-12T01:53:48.543Z,2.97
2018-11-12T01:56:16.144Z,3.20
2018-11-12T01:58:43.590Z,2.50
2018-11-12T02:01:11.126Z,2.83
2018-11-12T02:03:38.701Z,3.00
2018-11-12T02:06:06.254Z,3.10
2018-11-12T02:08:33.914Z,3.10
2018-11-12T02:11:01.639Z,2.90
2018-11-12T02:13:29.127Z,3.33
2018-11-12T02:15:59.571Z,3.03
2018-11-12T02:18:27.207Z,3.37
2018-11-12T02:20:54.725Z,2.93
2018-11-12T02:23:22.644Z,2.90
2018-11-12T02:25:50.464Z,2.83
2018-11-12T02:28:18.075Z,2.80
2018-11-12T02:30:46.569Z,2.87
2018-11-12T02:33:14.560Z,2.87
2018-11-12T02:35:42.206Z,3.27
2018-11-12T02:38:10.163Z,3.07
2018-11-12T02:40:37.773Z,3.27
2018-11-12T02:43:05.438Z,2.70
2018-11-12T02:45:33.063Z,3.03
2018-11-12T02:48:00.615Z,3.23
2018-11-12T02:50:28.099Z,3.50
2018-11-12T02:52:55.826Z,3.20
2018-11-12T02:55:23.364Z,3.73
2018-11-12T02:57:50.862Z,3.33
2018-11-12T03:00:20.444Z,3.57
2018-11-12T03:02:48.180Z,3.70
2018-11-12T03:05:15.655Z,3.40
2018-11-12T03:07:43.680Z,3.97
2018-11-12T03:10:14.382Z,3.73
2018-11-12T03:12:42.110Z,4.20
2018-11-12T03:15:10.979Z,3.43
2018-11-12T03:17:38.776Z,3.90
2018-11-12T03:20:07.991Z,3.63
2018-11-12T03:22:35.650Z,3.17
2018-11-12T03:25:03.556Z,3.43
2018-11-12T03:27:31.111Z,3.90
2018-11-12T03:29:58.686Z,3.70
2018-11-12T03:32:26.282Z,3.27
2018-11-12T03:34:53.784Z,3.63
2018-11-12T03:37:21.415Z,3.57
2018-11-12T03:39:49.239Z,3.30
2018-11-12T03:42:16.780Z,3.63
2018-11-12T03:44:44.767Z,3.20
2018-11-12T03:47:12.333Z,2.97
2018-11-12T03:49:39.958Z,3.20
2018-11-12T03:52:07.718Z,3.50
2018-11-12T03:54:35.499Z,2.97
2018-11-12T03:57:03.011Z,2.50
2018-11-12T03:59:30.661Z,2.90
2018-11-12T04:01:58.372Z,2.60
2018-11-12T04:04:25.788Z,2.70
2018-11-12T04:06:53.710Z,2.53
2018-11-12T04:09:21.304Z,2.40
2018-11-12T04:11:48.802Z,2.40
2018-11-12T04:14:16.565Z,2.80
2018-11-12T04:16:44.611Z,2.67
2018-11-12T04:19:12.270Z,2.60
2018-11-12T04:21:40.000Z,2.70
2018-11-12T04:24:07.682Z,2.47
2018-11-12T04:26:35.135Z,2.37
2018-11-12T04:29:03.310Z,2.73
2018-11-12T04:31:30.853Z,2.63
2018-11-12T04:33:58.656Z,2.77
2018-11-12T04:36:26.194Z,2.97
2018-11-12T04:38:54.176Z,2.93
2018-11-12T04:41:21.639Z,3.00
2018-11-12T04:43:49.324Z,2.73
2018-11-12T04:46:17.320Z,2.90
2018-11-12T04:48:44.845Z,2.43
2018-11-12T04:51:12.601Z,2.70
2018-11-12T04:53:40.242Z,2.50
2018-11-12T04:56:07.712Z,2.93
2018-11-12T04:58:35.562Z,2.90
2018-11-12T05:01:03.146Z,2.50
2018-11-12T05:03:30.609Z,2.67
2018-11-12T05:05:58.328Z,2.50
2018-11-12T05:08:25.790Z,2.33
2018-11-12T05:10:53.301Z,2.43
2018-11-12T05:13:20.969Z,2.73
2018-11-12T05:15:48.734Z,3.20
2018-11-12T05:18:16.224Z,3.00
2018-11-12T05:20:44.034Z,2.93
2018-11-12T05:23:11.534Z,3.20
2018-11-12T05:25:39.024Z,2.90
2018-11-12T05:28:06.804Z,3.10
2018-11-12T05:30:34.681Z,2.77
2018-11-12T05:33:02.149Z,2.80
2018-11-12T05:35:30.098Z,2.83
2018-11-12T05:37:57.984Z,2.97
2018-11-12T05:40:27.132Z,3.27
2018-11-12T05:42:54.727Z,2.90
2018-11-12T05:45:23.429Z,3.37
2018-11-12T05:47:50.870Z,3.57
2018-11-12T05:50:20.186Z,3.60
2018-11-12T05:52:49.062Z,2.90
2018-11-12T05:55:17.893Z,3.30
2018-11-12T05:57:46.301Z,3.73
2018-11-12T06:00:15.600Z,3.77
2018-11-12T06:02:43.090Z,4.10
2018-11-12T06:05:12.668Z,4.57
2018-11-12T06:07:40.296Z,4.13
2018-11-12T06:10:16.214Z,4.53
2018-11-12T06:12:44.094Z,4.00
2018-11-12T06:15:12.151Z,4.70
2018-11-12T06:17:40.378Z,4.43
2018-11-12T06:20:10.179Z,5.00
2018-11-12T06:22:37.698Z,5.27
2018-11-12T06:25:06.549Z,4.70
2018-11-12T06:27:34.142Z,5.37
2018-11-12T06:30:01.745Z,4.70
2018-11-12T06:32:29.750Z,5.07
2018-11-12T06:34:57.484Z,5.30
2018-11-12T06:37:24.949Z,5.10
2018-11-12T06:39:52.716Z,4.90
2018-11-12T06:42:20.529Z,4.23
2018-11-12T06:44:48.003Z,4.43
2018-11-12T06:47:15.566Z,4.73
2018-11-12T06:49:43.248Z,3.97
2018-11-12T06:52:10.875Z,4.30
2018-11-12T06:54:38.715Z,3.93
2018-11-12T06:57:06.435Z,4.20
2018-11-12T06:59:33.907Z,3.87
2018-11-12T07:02:01.649Z,4.07
2018-11-12T07:04:29.422Z,4.00
2018-11-12T07:06:57.017Z,4.00
2018-11-12T07:09:24.543Z,3.60
2018-11-12T07:11:52.030Z,3.80
2018-11-12T07:14:19.553Z,4.30
2018-11-12T07:16:47.215Z,3.07
2018-11-12T07:19:14.725Z,3.20
2018-11-12T07:21:42.176Z,3.00
2018-11-12T07:24:09.890Z,2.77
2018-11-12T07:26:37.417Z,3.43
2018-11-12T07:29:04.966Z,3.60
2018-11-12T07:31:32.670Z,3.53
2018-11-12T07:34:00.446Z,2.87
2018-11-12T07:36:28.109Z,3.10
2018-11-12T07:38:55.996Z,2.70
2018-11-12T07:41:24.076Z,2.90
2018-11-12T07:43:51.643Z,2.50
2018-11-12T07:46:19.270Z,3.07
2018-11-12T07:48:47.072Z,3.13
2018-11-12T07:51:14.717Z,2.60
2018-11-12T07:53:42.591Z,3.10
2018-11-12T07:56:10.243Z,3.00
2018-11-12T07:58:37.828Z,2.57
2018-11-12T08:01:06.225Z,3.10
2018-11-12T08:03:33.868Z,3.37
2018-11-12T08:06:01.325Z,2.90
2018-11-12T08:08:28.874Z,2.70
2018-11-12T08:10:56.309Z,2.63
2018-11-12T08:13:23.737Z,2.60
2018-11-12T08:15:51.337Z,2.50
2018-11-12T08:18:18.931Z,2.37
2018-11-12T08:20:46.363Z,2.57
2018-11-12T08:23:14.015Z,2.13
2018-11-12T08:25:41.756Z,2.20
2018-11-12T08:28:09.275Z,2.17
2018-11-12T08:30:36.800Z,2.37
2018-11-12T08:33:04.982Z,2.07
2018-11-12T08:35:32.464Z,2.23
2018-11-12T08:38:00.226Z,2.43
2018-11-12T08:40:28.783Z,2.27
2018-11-12T08:42:56.148Z,2.30
2018-11-12T08:45:24.158Z,2.00
2018-11-12T08:47:52.813Z,1.97
2018-11-12T08:50:21.545Z,2.40
2018-11-12T08:52:50.207Z,2.20
2018-11-12T08:55:19.041Z,2.10
2018-11-12T08:57:48.921Z,2.20
2018-11-12T09:00:17.241Z,2.60
2018-11-12T09:02:44.786Z,2.27
2018-11-12T09:05:13.433Z,2.43
2018-11-12T09:07:42.423Z,2.50
2018-11-12T09:10:13.617Z,2.63
2018-11-12T09:12:41.697Z,2.47
2018-11-12T09:15:09.834Z,2.17
2018-11-12T09:17:37.761Z,2.40
2018-11-12T09:20:05.622Z,2.43
2018-11-12T09:22:33.156Z,2.00
2018-11-12T09:25:00.734Z,2.07
2018-11-12T09:27:28.197Z,2.30
2018-11-12T09:29:55.906Z,2.57
2018-11-12T09:32:23.491Z,2.70
2018-11-12T09:34:50.989Z,2.63
2018-11-12T09:37:18.953Z,2.50
2018-11-12T09:39:46.478Z,2.83
2018-11-12T09:42:14.001Z,2.80
2018-11-12T09:44:41.599Z,2.70
2018-11-12T09:47:09.317Z,2.90
2018-11-12T09:49:36.870Z,3.00
2018-11-12T09:52:04.858Z,3.03
2018-11-12T09:54:32.700Z,3.20
2018-11-12T09:57:00.088Z,3.50
2018-11-12T09:59:27.659Z,2.90
2018-11-12T10:01:56.435Z,3.63
2018-11-12T10:04:23.551Z,3.90
2018-11-12T10:06:53.009Z,3.73
2018-11-12T10:09:21.692Z,3.50
2018-11-12T10:11:48.583Z,3.30
2018-11-12T10:14:16.193Z,3.40
2018-11-12T10:16:43.888Z,3.80
2018-11-12T10:19:09.113Z,3.73
2018-11-12T10:21:36.828Z,3.40
2018-11-12T10:24:04.897Z,3.40
2018-11-12T10:26:32.367Z,3.87
2018-11-12T10:28:59.932Z,3.67
2018-11-12T10:31:27.622Z,3.60
2018-11-12T10:33:55.111Z,3.80
2018-11-12T10:36:22.842Z,3.17
2018-11-12T10:38:50.465Z,3.10
2018-11-12T10:41:17.949Z,2.83
2018-11-12T10:43:45.641Z,3.10
2018-11-12T10:46:13.405Z,3.33
2018-11-12T10:48:41.013Z,3.30
2018-11-12T10:51:08.826Z,2.70
2018-11-12T10:53:36.507Z,3.00
2018-11-12T10:56:04.159Z,2.47
2018-11-12T10:58:31.929Z,2.93
2018-11-12T11:01:04.886Z,2.80
2018-11-12T11:03:32.701Z,2.40
2018-11-12T11:06:00.277Z,2.70
2018-11-12T11:08:28.223Z,2.67
2018-11-12T11:10:56.039Z,2.70
2018-11-12T11:13:23.501Z,2.83
2018-11-12T11:15:50.984Z,2.63
2018-11-12T11:18:18.687Z,2.60
2018-11-12T11:20:46.161Z,2.57
2018-11-12T11:23:13.587Z,2.67
2018-11-12T11:25:41.321Z,2.47
2018-11-12T11:28:08.883Z,2.47
2018-11-12T11:30:36.328Z,2.43
2018-11-12T11:33:04.305Z,1.90
2018-11-12T11:35:31.764Z,2.43
2018-11-12T11:37:59.254Z,2.33
2018-11-12T11:40:27.557Z,2.43
2018-11-12T11:42:54.979Z,2.07
2018-11-12T11:45:22.686Z,2.33
2018-11-12T11:47:51.326Z,2.17
2018-11-12T11:50:20.884Z,1.70
2018-11-12T11:52:48.278Z,2.37
2018-11-12T11:55:17.277Z,2.30
2018-11-12T11:57:45.075Z,2.10
2018-11-12T12:00:15.602Z,2.37
2018-11-12T12:02:44.129Z,2.53
2018-11-12T12:05:12.700Z,2.20
2018-11-12T12:07:40.204Z,2.23
2018-11-12T12:10:08.796Z,2.40
2018-11-12T12:12:36.347Z,2.20
2018-11-12T12:15:04.547Z,2.17
2018-11-12T12:17:32.233Z,2.03
2018-11-12T12:19:59.766Z,1.90
2018-11-12T12:22:27.276Z,1.87
2018-11-12T12:24:55.055Z,1.70
2018-11-12T12:27:22.525Z,1.43
2018-11-12T12:29:50.044Z,1.77
2018-11-12T12:32:17.789Z,2.10
2018-11-12T12:34:45.281Z,2.07
2018-11-12T12:37:12.825Z,2.03
2018-11-12T12:39:40.494Z,1.97
2018-11-12T12:42:07.947Z,2.37
2018-11-12T12:44:36.163Z,2.17
2018-11-12T12:47:04.378Z,1.60
2018-11-12T12:49:32.340Z,1.80
2018-11-12T12:51:59.830Z,1.87
2018-11-12T12:54:27.598Z,1.73
2018-11-12T12:56:55.104Z,1.50
2018-11-12T12:59:22.634Z,1.83
2018-11-12T13:01:50.623Z,1.37
2018-11-12T13:04:17.958Z,1.47
2018-11-12T13:06:45.571Z,1.70
2018-11-12T13:09:13.293Z,1.37
2018-11-12T13:11:40.766Z,1.40
2018-11-12T13:14:08.571Z,1.80
2018-11-12T13:16:36.333Z,1.63
2018-11-12T13:19:04.027Z,1.70
2018-11-12T13:21:31.857Z,1.67
2018-11-12T13:23:59.748Z,1.60
2018-11-12T13:26:27.196Z,2.00
2018-11-12T13:29:01.694Z,1.80
2018-11-12T13:31:29.130Z,2.10
2018-11-12T13:33:56.570Z,2.20
2018-11-12T13:36:24.491Z,2.33
2018-11-12T13:38:51.973Z,2.43
2018-11-12T13:41:19.481Z,2.10
2018-11-12T13:43:47.460Z,2.00
2018-11-12T13:46:14.923Z,2.00
2018-11-12T13:48:42.719Z,2.57
2018-11-12T13:51:10.391Z,2.10
2018-11-12T13:53:37.857Z,2.13
2018-11-12T13:56:05.865Z,2.47
2018-11-12T13:58:33.499Z,2.17
2018-11-12T14:01:01.020Z,2.33
2018-11-12T14:03:28.571Z,2.37
2018-11-12T14:05:56.548Z,2.60
2018-11-12T14:08:24.039Z,2.27
2018-11-12T14:10:51.516Z,2.53
2018-11-12T14:13:19.147Z,2.70
2018-11-12T14:15:46.616Z,2.47
2018-11-12T14:18:14.164Z,2.93
2018-11-12T14:20:42.068Z,2.80
2018-11-12T14:23:09.379Z,3.40
2018-11-12T14:25:36.876Z,2.80
2018-11-12T14:28:04.850Z,3.20
2018-11-12T14:30:32.343Z,2.83
2018-11-12T14:32:59.878Z,3.17
2018-11-12T14:35:28.053Z,3.37
2018-11-12T14:37:55.522Z,3.30
2018-11-12T14:40:23.028Z,3.20
2018-11-12T14:42:51.010Z,3.00
2018-11-12T14:45:19.669Z,2.70
2018-11-12T14:47:47.314Z,2.80
2018-11-12T14:50:15.011Z,3.03
2018-11-12T14:52:42.467Z,2.63
2018-11-12T14:55:11.509Z,3.00
2018-11-12T14:57:39.165Z,2.70
2018-11-12T15:00:17.487Z,3.07
2018-11-12T15:02:45.761Z,2.70
2018-11-12T15:05:13.774Z,3.00
2018-11-12T15:07:41.290Z,3.30
2018-11-12T15:10:10.078Z,3.40
2018-11-12T15:12:37.600Z,3.60
2018-11-12T15:15:06.392Z,3.80
2018-11-12T15:17:34.326Z,3.30
2018-11-12T15:20:01.847Z,3.43
2018-11-12T15:22:29.363Z,3.40
2018-11-12T15:24:57.479Z,3.80
2018-11-12T15:27:24.982Z,4.37
2018-11-12T15:29:52.416Z,4.50
2018-11-12T15:32:20.312Z,4.83
2018-11-12T15:34:47.843Z,4.80
2018-11-12T15:37:15.373Z,5.37
2018-11-12T15:39:44.256Z,4.90
2018-11-12T15:42:11.724Z,6.00
2018-11-12T15:44:39.221Z,5.40
2018-11-12T15:47:07.155Z,6.00
2018-11-12T15:49:34.647Z,6.00
2018-11-12T15:52:02.171Z,6.70
2018-11-12T15:54:29.837Z,7.13
2018-11-12T15:56:57.344Z,7.50
2018-11-12T15:59:24.828Z,8.20
2018-11-12T16:01:52.513Z,8.37
2018-11-12T16:04:19.972Z,7.93
2018-11-12T16:06:47.550Z,7.53
2018-11-12T16:09:15.904Z,6.93
2018-11-12T16:11:44.086Z,6.20
2018-11-12T16:14:11.567Z,6.10
2018-11-12T16:16:39.497Z,6.63
2018-11-12T16:19:08.113Z,7.57
2018-11-12T16:21:35.489Z,8.53
2018-11-12T16:24:03.229Z,9.27
2018-11-12T16:26:30.867Z,9.50
2018-11-12T16:28:58.332Z,9.77
2018-11-12T16:31:26.042Z,10.57
2018-11-12T16:33:53.409Z,10.57
2018-11-12T16:36:20.896Z,11.57
2018-11-12T16:38:48.801Z,11.33
2018-11-12T16:41:16.305Z,11.73
2018-11-12T16:43:43.839Z,11.97
2018-11-12T16:46:11.575Z,12.97
2018-11-12T16:48:39.085Z,13.20
2018-11-12T16:51:06.695Z,12.90
2018-11-12T16:53:34.690Z,13.83
2018-11-12T16:56:02.157Z,12.87
2018-11-12T16:58:29.645Z,13.40
2018-11-12T17:00:57.414Z,13.00
2018-11-12T17:03:24.841Z,14.60
2018-11-12T17:05:52.403Z,14.07
2018-11-12T17:08:20.123Z,14.13
2018-11-12T17:10:47.617Z,14.47
2018-11-12T17:13:15.043Z,13.60
2018-11-12T17:15:42.964Z,15.77
2018-11-12T17:18:40.962Z,14.63
2018-11-12T17:21:08.600Z,15.13
2018-11-12T17:23:36.018Z,13.57
2018-11-12T17:26:03.574Z,15.00
2018-11-12T17:28:31.326Z,15.00
2018-11-12T17:30:58.899Z,15.70
2018-11-12T17:33:26.363Z,14.83
2018-11-12T17:35:54.033Z,14.07
2018-11-12T17:38:21.532Z,14.37
2018-11-12T17:40:49.015Z,14.73
2018-11-12T17:43:16.875Z,12.80
2018-11-12T17:45:44.301Z,13.70
2018-11-12T17:48:11.758Z,12.87
2018-11-12T17:50:39.496Z,14.50
2018-11-12T17:53:06.960Z,11.60
2018-11-12T17:55:34.404Z,13.10
2018-11-12T17:58:02.172Z,11.53
2018-11-12T18:00:34.999Z,11.10
2018-11-12T18:03:02.742Z,11.93
2018-11-12T18:05:30.269Z,11.83
2018-11-12T18:07:57.860Z,11.90
2018-11-12T18:10:25.498Z,11.70
2018-11-12T18:12:52.928Z,12.20
2018-11-12T18:15:21.385Z,10.93
2018-11-12T18:17:49.075Z,10.57
2018-11-12T18:20:18.932Z,11.37
2018-11-12T18:22:46.555Z,11.50
2018-11-12T18:25:14.746Z,10.37
2018-11-12T18:27:42.301Z,10.60
2018-11-12T18:30:13.216Z,12.03
2018-11-12T18:32:40.957Z,11.30
2018-11-12T18:35:08.837Z,9.00
2018-11-12T18:37:36.557Z,9.17
2018-11-12T18:40:05.119Z,8.80
2018-11-12T18:42:32.577Z,8.47
2018-11-12T18:45:00.023Z,10.20
2018-11-12T18:47:27.905Z,8.33
2018-11-12T18:49:55.352Z,9.50
2018-11-12T18:52:22.796Z,8.57
2018-11-12T18:54:50.463Z,9.93
2018-11-12T18:57:18.484Z,9.27
2018-11-12T18:59:45.932Z,9.53
2018-11-12T19:02:13.549Z,9.10
2018-11-12T19:04:41.040Z,9.67
2018-11-12T19:07:08.528Z,9.77
2018-11-12T19:09:36.339Z,9.97
2018-11-12T19:12:04.050Z,10.07
2018-11-12T19:14:31.481Z,9.60
2018-11-12T19:16:59.321Z,9.67
2018-11-12T19:19:26.802Z,9.87
2018-11-12T19:21:54.313Z,10.30
2018-11-12T19:24:21.957Z,9.67
2018-11-12T19:26:49.427Z,10.07
2018-11-12T19:29:16.898Z,11.63
2018-11-12T19:31:44.544Z,10.67
2018-11-12T19:34:12.064Z,10.87
2018-11-12T19:36:39.505Z,10.53
2018-11-12T19:39:07.774Z,11.30
2018-11-12T19:41:35.198Z,10.97
2018-11-12T19:44:02.650Z,11.63
2018-11-12T19:46:30.554Z,12.27
2018-11-12T19:48:58.041Z,12.13
2018-11-12T19:51:25.696Z,12.33
2018-11-12T19:53:53.408Z,11.93
2018-11-12T19:56:20.853Z,11.93
2018-11-12T19:58:48.351Z,11.87
2018-11-12T20:01:15.974Z,12.80
2018-11-12T20:03:43.495Z,11.53
2018-11-12T20:06:10.918Z,11.60
2018-11-12T20:08:38.531Z,11.87
2018-11-12T20:11:06.043Z,11.60
2018-11-12T20:13:33.501Z,11.23
2018-11-12T20:16:01.035Z,11.13
2018-11-12T20:18:28.501Z,10.70
2018-11-12T20:20:55.925Z,10.30
2018-11-12T20:23:23.515Z,10.97
2018-11-12T20:25:51.024Z,10.60
2018-11-12T20:28:18.543Z,10.03
2018-11-12T20:30:46.198Z,10.67
2018-11-12T20:33:13.735Z,11.10
2018-11-12T20:35:41.201Z,10.90
2018-11-12T20:38:08.865Z,10.87
2018-11-12T20:40:36.454Z,10.60
2018-11-12T20:43:03.974Z,10.30
2018-11-12T20:45:31.892Z,9.57
2018-11-12T20:47:59.471Z,9.93
2018-11-12T20:50:26.904Z,9.37
2018-11-12T20:52:54.711Z,9.97
2018-11-12T20:55:22.219Z,10.37
2018-11-12T20:57:49.661Z,9.13
2018-11-12T21:00:20.057Z,9.93
2018-11-12T21:02:48.781Z,9.17
2018-11-12T21:05:16.534Z,8.93
2018-11-12T21:07:44.515Z,8.97
2018-11-12T21:10:14.543Z,8.67
2018-11-12T21:12:42.219Z,8.73
2018-11-12T21:15:11.356Z,8.10
2018-11-12T21:17:38.797Z,8.37
2018-11-12T21:20:08.065Z,8.07
2018-11-12T21:22:35.705Z,7.60
2018-11-12T21:25:03.247Z,7.10
2018-11-12T21:27:30.697Z,8.37
2018-11-12T21:29:58.299Z,8.90
2018-11-12T21:32:25.795Z,7.57
2018-11-12T21:34:53.233Z,7.93
2018-11-12T21:37:21.024Z,8.27
2018-11-12T21:39:48.469Z,9.40
2018-11-12T21:42:15.941Z,8.57
2018-11-12T21:44:43.580Z,8.90
2018-11-12T21:47:11.058Z,7.57
2018-11-12T21:49:38.548Z,8.13
2018-11-12T21:52:06.270Z,7.07
2018-11-12T21:54:33.788Z,7.57
2018-11-12T21:57:01.235Z,7.13
2018-11-12T21:59:29.242Z,6.97
2018-11-12T22:01:56.837Z,6.77
2018-11-12T22:04:24.286Z,6.93
2018-11-12T22:06:52.191Z,7.73
2018-11-12T22:09:19.724Z,7.77
2018-11-12T22:11:47.163Z,7.13
2018-11-12T22:14:14.818Z,7.10
2018-11-12T22:16:42.308Z,7.13
2018-11-12T22:19:09.829Z,7.47
2018-11-12T22:21:37.533Z,7.17
2018-11-12T22:24:05.066Z,7.57
2018-11-12T22:26:32.555Z,7.37
2018-11-12T22:29:00.726Z,6.47
2018-11-12T22:31:28.347Z,7.30
2018-11-12T22:33:55.833Z,6.73
2018-11-12T22:36:24.111Z,6.37
2018-11-12T22:38:51.681Z,6.10
2018-11-12T22:41:19.209Z,6.40
2018-11-12T22:43:47.396Z,6.07
2018-11-12T22:46:14.877Z,6.00
2018-11-12T22:48:42.366Z,6.43
2018-11-12T22:51:09.982Z,5.43
2018-11-12T22:53:37.418Z,6.13
2018-11-12T22:56:05.606Z,6.10
2018-11-12T22:58:33.230Z,5.87
2018-11-12T23:01:04.174Z,5.53
2018-11-12T23:03:31.720Z,6.07
2018-11-12T23:06:05.055Z,6.20
2018-11-12T23:08:32.771Z,6.73
2018-11-12T23:11:00.250Z,6.40
2018-11-12T23:13:27.764Z,5.67
2018-11-12T23:15:55.388Z,6.17
2018-11-12T23:18:22.834Z,6.07
2018-11-12T23:20:50.491Z,5.60
2018-11-12T23:23:18.121Z,6.03
2018-11-12T23:25:45.597Z,6.27
2018-11-12T23:28:13.297Z,6.20
2018-11-12T23:30:40.985Z,5.73
2018-11-12T23:33:08.449Z,5.90
2018-11-12T23:35:36.124Z,5.63
2018-11-12T23:38:03.782Z,5.60
2018-11-12T23:40:31.211Z,5.40
2018-11-12T23:43:05.661Z,5.67
2018-11-12T23:45:33.084Z,5.50
2018-11-12T23:48:00.601Z,5.27
2018-11-12T23:50:28.453Z,4.97
2018-11-12T23:52:55.885Z,5.27
2018-11-12T23:55:23.358Z,5.50
2018-11-12T23:57:51.188Z,5.10
